Time;durP1;ratioP1;P1;durP2;ratioP2;P2;SDS_P1;SDS_P2;PMS_P1;PMS_P2;Temp;Humidity;BMP_temperature;BMP_pressure;BME280_temperature;BME280_humidity;BME280_pressure;Samples;Min_cycle;Max_cycle;Signal;HPM_P1;HPM_P2
2022/11/14 00:01:33;;;;;;;139.40;39.28;;;;;;;;;;5055757;28;20047;-71
2022/11/14 00:04:19;;;;;;;147.88;40.17;;;;;;;;;;5055580;28;20133;-71
2022/11/14 00:07:10;;;;;;;126.70;37.95;;;;;;;;;;5055520;28;20055;-71
2022/11/14 00:09:56;;;;;;;;;;;;;;;;;;5056118;28;20099;-71
2022/11/14 00:12:42;;;;;;;144.35;36.20;;;;;;;;;;5055553;28;20070;-71
2022/11/14 00:15:28;;;;;;;128.30;36.60;;;;;;;;;;5055429;28;20564;-71
2022/11/14 00:18:14;;;;;;;128.40;36.50;;;;;;;;;;5070076;28;20536;-70
2022/11/14 00:21:00;;;;;;;99.07;34.92;;;;;;;;;;5095795;28;20043;-71
2022/11/14 00:23:46;;;;;;;144.73;37.17;;;;;;;;;;5095667;28;20148;-70
2022/11/14 00:26:32;;;;;;;141.20;36.20;;;;;;;;;;5095607;28;20051;-70
2022/11/14 00:29:18;;;;;;;129.73;35.33;;;;;;;;;;5095808;28;20052;-71
2022/11/14 00:32:04;;;;;;;159.52;37.47;;;;;;;;;;5094473;28;20420;-70
2022/11/14 00:34:50;;;;;;;130.50;33.75;;;;;;;;;;5095335;28;20429;-71
2022/11/14 00:37:36;;;;;;;164.10;35.67;;;;;;;;;;5095630;28;20118;-70
2022/11/14 00:40:22;;;;;;;143.68;35.83;;;;;;;;;;5095574;28;20078;-71
2022/11/14 00:43:08;;;;;;;146.55;35.83;;;;;;;;;;5095552;28;20128;-70
2022/11/14 00:45:54;;;;;;;180.90;35.25;;;;;;;;;;5094160;28;20055;-71
2022/11/14 00:48:40;;;;;;;164.38;36.25;;;;;;;;;;5095100;28;20047;-70
2022/11/14 00:51:26;;;;;;;160.88;34.10;;;;;;;;;;5095137;28;20051;-70
2022/11/14 00:54:13;;;;;;;152.65;35.42;;;;;;;;;;5095039;28;20055;-71
2022/11/14 00:56:59;;;;;;;157.75;33.22;;;;;;;;;;5094964;28;20043;-71
2022/11/14 00:59:45;;;;;;;134.88;34.53;;;;;;;;;;5094912;28;20398;-70
2022/11/14 01:02:31;;;;;;;198.18;34.70;;;;;;;;;;5095118;28;20051;-71
2022/11/14 01:05:17;;;;;;;136.98;33.33;;;;;;;;;;5094779;28;20054;-71
2022/11/14 01:08:02;;;;;;;134.82;32.25;;;;;;;;;;5094703;28;20051;-71
2022/11/14 01:10:50;;;;;;;128.93;32.15;;;;;;;;;;5094650;28;20410;-71
2022/11/14 01:13:36;;;;;;;150.45;33.70;;;;;;;;;;5094663;28;20554;-71
2022/11/14 01:16:22;;;;;;;156.68;32.03;;;;;;;;;;5094623;28;20558;-71
2022/11/14 01:19:08;;;;;;;141.98;31.17;;;;;;;;;;5094391;28;20051;-71
2022/11/14 01:21:54;;;;;;;131.73;33.97;;;;;;;;;;5094585;28;20047;-71
2022/11/14 01:24:40;;;;;;;123.47;31.00;;;;;;;;;;5094488;28;20055;-71
2022/11/14 01:27:26;;;;;;;113.20;32.33;;;;;;;;;;5094668;28;20554;-71
2022/11/14 01:30:12;;;;;;;137.23;31.25;;;;;;;;;;5094397;28;20051;-71
2022/11/14 01:32:58;;;;;;;124.25;30.55;;;;;;;;;;5093983;28;20074;-71
2022/11/14 01:35:44;;;;;;;112.70;29.65;;;;;;;;;;5094313;28;20437;-71
2022/11/14 01:38:30;;;;;;;102.25;28.98;;;;;;;;;;5094454;28;20524;-71
2022/11/14 01:41:16;;;;;;;130.20;30.35;;;;;;;;;;5094073;28;20051;-71
2022/11/14 01:44:02;;;;;;;120.38;30.00;;;;;;;;;;5094347;28;20104;-71
2022/11/14 01:46:52;;;;;;;158.95;32.30;;;;;;;;;;5094199;28;20058;-71
2022/11/14 01:49:42;;;;;;;137.93;31.10;;;;;;;;;;5094259;28;20054;-71
2022/11/14 01:52:33;;;;;;;90.85;27.75;;;;;;;;;;5093948;28;20193;-71
2022/11/14 01:55:19;;;;;;;96.50;26.42;;;;;;;;;;5094275;28;20458;-71
2022/11/14 01:58:05;;;;;;;157.40;29.55;;;;;;;;;;5092871;28;20046;-71
2022/11/14 02:00:51;;;;;;;104.65;27.25;;;;;;;;;;5093322;28;20116;-71
2022/11/14 02:03:39;;;;;;;113.95;28.58;;;;;;;;;;5093715;28;20051;-71
2022/11/14 02:06:27;;;;;;;143.00;28.08;;;;;;;;;;5093645;28;20520;-71
2022/11/14 02:09:13;;;;;;;112.88;26.92;;;;;;;;;;5093599;28;20043;-71
2022/11/14 02:12:00;;;;;;;93.28;26.92;;;;;;;;;;5093762;28;20059;-71
2022/11/14 02:14:49;;;;;;;102.25;25.17;;;;;;;;;;5093791;28;20054;-71
2022/11/14 02:17:35;;;;;;;122.28;26.70;;;;;;;;;;5093224;28;20186;-71
2022/11/14 02:20:22;;;;;;;142.98;26.48;;;;;;;;;;5093388;28;20508;-71
2022/11/14 02:23:12;;;;;;;177.77;28.23;;;;;;;;;;5093637;28;20054;-71
2022/11/14 02:25:58;;;;;;;167.25;28.05;;;;;;;;;;5093246;28;20051;-71
2022/11/14 02:28:44;;;;;;;173.80;28.15;;;;;;;;;;5093565;28;20051;-71
2022/11/14 02:31:31;;;;;;;151.60;27.90;;;;;;;;;;5092139;28;20105;-71
2022/11/14 02:34:19;;;;;;;137.70;24.73;;;;;;;;;;5093134;28;20120;-71
2022/11/14 02:37:05;;;;;;;136.10;26.08;;;;;;;;;;5092092;28;20533;-71
2022/11/14 02:39:52;;;;;;;130.00;25.27;;;;;;;;;;5093064;28;20051;-71
2022/11/14 02:42:37;;;;;;;106.15;24.52;;;;;;;;;;5093054;28;20409;-71
2022/11/14 02:45:23;;;;;;;146.00;23.63;;;;;;;;;;5092059;28;20055;-71
2022/11/14 02:48:09;;;;;;;137.52;22.15;;;;;;;;;;5091776;28;20050;-71
2022/11/14 02:50:55;;;;;;;127.50;21.13;;;;;;;;;;5093122;28;20059;-71
2022/11/14 02:53:41;;;;;;;108.60;17.50;;;;;;;;;;5092869;28;20097;-71
2022/11/14 02:56:27;;;;;;;115.60;16.20;;;;;;;;;;5092890;28;20406;-71
2022/11/14 02:59:14;;;;;;;101.13;14.23;;;;;;;;;;5092805;28;20055;-71
2022/11/14 03:02:00;;;;;;;149.30;15.02;;;;;;;;;;5093044;28;20128;-71
2022/11/14 03:04:46;;;;;;;118.68;13.60;;;;;;;;;;5092647;28;20058;-71
2022/11/14 03:07:32;;;;;;;116.40;12.30;;;;;;;;;;5092815;28;20067;-71
2022/11/14 03:10:18;;;;;;;119.95;12.40;;;;;;;;;;5092968;28;20597;-71
2022/11/14 03:13:04;;;;;;;72.15;9.93;;;;;;;;;;5095209;28;20055;-71
2022/11/14 03:15:50;;;;;;;119.10;11.57;;;;;;;;;;5096969;28;20121;-71
2022/11/14 03:18:36;;;;;;;105.68;11.82;;;;;;;;;;5096635;28;20098;-71
2022/11/14 03:21:22;;;;;;;105.72;11.00;;;;;;;;;;5096870;28;20401;-71
2022/11/14 03:24:08;;;;;;;119.05;12.32;;;;;;;;;;5096928;28;20055;-71
2022/11/14 03:26:54;;;;;;;125.07;14.48;;;;;;;;;;5096631;28;20417;-71
2022/11/14 03:29:40;;;;;;;639.55;83.13;;;;;;;;;;5095613;28;20046;-71
2022/11/14 03:32:26;;;;;;;100.38;11.98;;;;;;;;;;5096598;28;20051;-71
2022/11/14 03:35:12;;;;;;;168.30;21.95;;;;;;;;;;5096818;28;20067;-71
2022/11/14 03:37:58;;;;;;;298.73;39.20;;;;;;;;;;5096358;28;20047;-71
2022/11/14 03:40:44;;;;;;;167.07;19.55;;;;;;;;;;5096434;28;20051;-71
2022/11/14 03:43:31;;;;;;;131.05;21.90;;;;;;;;;;5096668;28;20058;-71
2022/11/14 03:46:17;;;;;;;114.95;16.65;;;;;;;;;;5096132;28;20055;-71
2022/11/14 03:49:03;;;;;;;98.50;18.63;;;;;;;;;;5096064;28;20067;-71
2022/11/14 03:51:49;;;;;;;89.40;17.33;;;;;;;;;;5096173;28;20071;-71
2022/11/14 03:54:35;;;;;;;91.82;14.70;;;;;;;;;;5095141;28;20055;-71
2022/11/14 03:57:21;;;;;;;78.60;14.85;;;;;;;;;;5096400;28;20062;-71
2022/11/14 04:00:08;;;;;;;62.53;16.77;;;;;;;;;;5096018;28;20055;-71
2022/11/14 04:02:57;;;;;;;83.05;18.10;;;;;;;;;;5095996;28;20055;-71
2022/11/14 04:05:44;;;;;;;111.10;19.73;;;;;;;;;;5096010;28;20109;-71
2022/11/14 04:08:30;;;;;;;75.13;18.00;;;;;;;;;;5096152;28;20592;-72
2022/11/14 04:11:16;;;;;;;77.28;18.23;;;;;;;;;;5095820;28;20050;-71
2022/11/14 04:14:02;;;;;;;99.85;21.85;;;;;;;;;;5094832;28;20177;-71
2022/11/14 04:16:48;;;;;;;91.47;18.25;;;;;;;;;;5095778;28;20051;-71
2022/11/14 04:19:35;;;;;;;60.50;18.67;;;;;;;;;;5095466;28;20593;-71
2022/11/14 04:22:20;;;;;;;74.32;18.70;;;;;;;;;;5095682;28;20056;-71
2022/11/14 04:25:06;;;;;;;;;;;;;;;;;;5095819;28;20059;-71
2022/11/14 04:27:52;;;;;;;100.20;19.02;;;;;;;;;;5095532;28;19927;-71
2022/11/14 04:30:38;;;;;;;105.55;20.17;;;;;;;;;;5095393;28;20141;-71
2022/11/14 04:33:25;;;;;;;100.03;22.77;;;;;;;;;;5095431;28;20066;-71
2022/11/14 04:36:11;;;;;;;156.75;27.10;;;;;;;;;;5095251;28;20063;-70
2022/11/14 04:38:56;;;;;;;144.20;25.48;;;;;;;;;;5095230;28;20055;-71
2022/11/14 04:41:43;;;;;;;84.18;25.67;;;;;;;;;;5112900;28;20141;-71
2022/11/14 04:44:29;;;;;;;84.78;27.10;;;;;;;;;;5115420;28;20144;-71
2022/11/14 04:47:15;;;;;;;82.45;24.80;;;;;;;;;;5115531;28;20573;-71
2022/11/14 04:50:02;;;;;;;68.75;23.80;;;;;;;;;;5115478;28;20097;-71
2022/11/14 04:52:51;;;;;;;75.72;22.20;;;;;;;;;;5115478;28;20054;-71
2022/11/14 04:55:37;;;;;;;63.35;22.67;;;;;;;;;;5114340;28;20054;-71
2022/11/14 04:58:23;;;;;;;70.72;24.95;;;;;;;;;;5115406;28;20059;-72
2022/11/14 05:01:10;;;;;;;68.88;24.98;;;;;;;;;;5115274;28;20101;-72
2022/11/14 05:03:56;;;;;;;68.53;23.90;;;;;;;;;;5115601;28;20054;-73
2022/11/14 05:06:42;;;;;;;72.57;26.92;;;;;;;;;;5115228;28;20063;-70
2022/11/14 05:09:28;;;;;;;65.50;24.13;;;;;;;;;;5115326;28;20047;-70
2022/11/14 05:12:14;;;;;;;66.38;22.88;;;;;;;;;;5115126;28;20086;-70
2022/11/14 05:15:00;;;;;;;68.97;25.77;;;;;;;;;;5114834;28;20217;-71
2022/11/14 05:17:46;;;;;;;57.25;23.60;;;;;;;;;;5113635;28;20050;-71
2022/11/14 05:20:33;;;;;;;65.32;26.80;;;;;;;;;;5114758;28;20051;-71
2022/11/14 05:23:20;;;;;;;67.70;29.60;;;;;;;;;;5115121;28;20515;-71
2022/11/14 05:26:07;;;;;;;59.78;29.75;;;;;;;;;;5114668;28;20393;-71
2022/11/14 05:28:53;;;;;;;56.83;28.83;;;;;;;;;;5114645;28;20393;-71
2022/11/14 05:31:39;;;;;;;54.28;27.90;;;;;;;;;;5114568;28;20150;-71
2022/11/14 05:34:25;;;;;;;56.40;28.13;;;;;;;;;;5107706;28;20046;-70
2022/11/14 05:37:11;;;;;;;58.25;28.70;;;;;;;;;;5094098;28;20070;-70
2022/11/14 05:39:57;;;;;;;50.72;28.45;;;;;;;;;;5094025;28;20055;-70
2022/11/14 05:42:43;;;;;;;48.15;28.05;;;;;;;;;;5096290;28;21109;-72
2022/11/14 05:45:30;;;;;;;49.47;29.08;;;;;;;;;;5114308;28;20055;-72
2022/11/14 05:48:16;;;;;;;49.13;28.48;;;;;;;;;;5114567;28;20058;-72
2022/11/14 05:51:04;;;;;;;55.00;30.13;;;;;;;;;;5114170;28;20516;-72
2022/11/14 05:53:49;;;;;;;54.83;26.70;;;;;;;;;;5114043;28;20066;-72
2022/11/14 05:56:35;;;;;;;57.20;25.90;;;;;;;;;;5114155;28;20062;-72
2022/11/14 05:59:21;;;;;;;70.18;25.00;;;;;;;;;;5114389;28;20414;-72
2022/11/14 06:02:07;;;;;;;76.97;28.83;;;;;;;;;;5114158;28;20169;-72
2022/11/14 06:04:53;;;;;;;67.40;24.63;;;;;;;;;;5114058;28;20523;-72
2022/11/14 06:07:39;;;;;;;101.32;24.83;;;;;;;;;;5114076;28;20055;-72
2022/11/14 06:10:25;;;;;;;85.50;22.15;;;;;;;;;;5114067;28;20579;-72
2022/11/14 06:13:12;;;;;;;78.22;19.42;;;;;;;;;;5114307;28;20051;-72
2022/11/14 06:15:59;;;;;;;59.28;19.58;;;;;;;;;;5113995;28;20059;-71
2022/11/14 06:18:45;;;;;;;55.60;19.40;;;;;;;;;;5113705;28;20107;-72
2022/11/14 06:21:31;;;;;;;61.97;20.92;;;;;;;;;;5113922;28;20051;-72
2022/11/14 06:24:18;;;;;;;41.38;19.80;;;;;;;;;;5113516;28;20490;-72
2022/11/14 06:27:05;;;;;;;42.38;19.90;;;;;;;;;;5113605;28;20397;-72
2022/11/14 06:29:51;;;;;;;45.80;19.98;;;;;;;;;;5113728;28;20117;-72
2022/11/14 06:32:37;;;;;;;40.13;19.92;;;;;;;;;;5113746;28;20093;-72
2022/11/14 06:35:23;;;;;;;42.80;19.20;;;;;;;;;;5098592;28;20145;-72
2022/11/14 06:38:12;;;;;;;38.67;18.80;;;;;;;;;;5113708;28;20050;-72
2022/11/14 06:41:05;;;;;;;36.58;18.17;;;;;;;;;;5113395;28;20042;-72
2022/11/14 06:43:54;;;;;;;39.30;19.05;;;;;;;;;;5113363;28;20047;-72
2022/11/14 06:46:40;;;;;;;41.78;19.80;;;;;;;;;;5113318;28;20054;-72
2022/11/14 06:49:26;;;;;;;45.65;19.95;;;;;;;;;;5113548;28;20133;-72
2022/11/14 06:52:12;;;;;;;41.45;20.00;;;;;;;;;;5113583;28;20058;-72
2022/11/14 06:54:58;;;;;;;40.53;19.73;;;;;;;;;;5113164;28;20124;-72
2022/11/14 06:57:44;;;;;;;38.53;19.33;;;;;;;;;;5113153;28;20509;-72
2022/11/14 07:00:30;;;;;;;39.35;19.65;;;;;;;;;;5113268;28;20523;-72
2022/11/14 07:03:16;;;;;;;37.30;19.88;;;;;;;;;;5113159;28;20059;-72
2022/11/14 07:06:03;;;;;;;36.05;18.88;;;;;;;;;;5113273;28;20055;-73
2022/11/14 07:08:49;;;;;;;31.02;17.55;;;;;;;;;;5113145;28;20093;-72
2022/11/14 07:11:36;;;;;;;42.17;19.33;;;;;;;;;;5113047;28;20050;-72
2022/11/14 07:14:22;;;;;;;34.38;18.33;;;;;;;;;;5113367;28;20066;-71
2022/11/14 07:17:08;;;;;;;38.67;20.20;;;;;;;;;;5113053;28;20116;-72
2022/11/14 07:19:54;;;;;;;36.10;20.08;;;;;;;;;;5072482;28;20133;-73
2022/11/14 07:22:40;;;;;;;39.35;19.25;;;;;;;;;;5072659;28;20409;-73
2022/11/14 07:25:26;;;;;;;47.70;21.58;;;;;;;;;;5072330;28;20059;-73
2022/11/14 07:28:12;;;;;;;41.00;20.70;;;;;;;;;;5072302;28;20414;-73
2022/11/14 07:30:59;;;;;;;43.67;19.75;;;;;;;;;;5072565;28;20402;-73
2022/11/14 07:33:45;;;;;;;31.92;17.67;;;;;;;;;;5072665;28;20058;-73
2022/11/14 07:36:31;;;;;;;32.58;17.77;;;;;;;;;;5072406;28;20067;-73
2022/11/14 07:39:17;;;;;;;35.60;17.65;;;;;;;;;;5072351;28;20051;-73
2022/11/14 07:42:03;;;;;;;31.63;17.02;;;;;;;;;;5072092;28;20418;-73
2022/11/14 07:44:49;;;;;;;32.72;16.98;;;;;;;;;;5072167;28;20141;-73
2022/11/14 07:47:35;;;;;;;31.65;16.88;;;;;;;;;;5071872;28;20100;-73
2022/11/14 07:50:21;;;;;;;31.35;18.70;;;;;;;;;;5072399;28;20059;-73
2022/11/14 07:53:07;;;;;;;34.38;17.63;;;;;;;;;;5085140;28;20059;-73
2022/11/14 07:55:54;;;;;;;35.47;18.65;;;;;;;;;;5072460;28;20140;-73
2022/11/14 07:58:41;;;;;;;34.47;18.25;;;;;;;;;;5073503;28;20047;-73
2022/11/14 08:01:26;;;;;;;107.75;25.67;;;;;;;;;;5088864;28;20055;-73
2022/11/14 08:04:12;;;;;;;100.95;25.65;;;;;;;;;;5075583;28;20174;-73
2022/11/14 08:06:58;;;;;;;35.45;18.60;;;;;;;;;;5075393;28;20098;-73
2022/11/14 08:09:44;;;;;;;41.28;18.33;;;;;;;;;;5075573;28;20051;-73
2022/11/14 08:12:30;;;;;;;35.22;17.10;;;;;;;;;;5075406;28;20052;-73
2022/11/14 08:15:16;;;;;;;33.13;16.25;;;;;;;;;;5075409;28;20086;-73
2022/11/14 08:18:02;;;;;;;34.88;19.15;;;;;;;;;;5087579;28;20062;-73
2022/11/14 08:20:48;;;;;;;33.75;17.42;;;;;;;;;;5116057;28;20071;-73
2022/11/14 08:23:34;;;;;;;35.25;16.92;;;;;;;;;;5115823;28;20100;-72
2022/11/14 08:26:20;;;;;;;34.70;16.50;;;;;;;;;;5115845;28;20051;-72
2022/11/14 08:29:06;;;;;;;35.72;16.23;;;;;;;;;;5115882;28;20059;-72
2022/11/14 08:31:53;;;;;;;36.83;17.38;;;;;;;;;;5115672;28;20046;-73
2022/11/14 08:34:45;;;;;;;33.33;17.15;;;;;;;;;;5115874;28;20405;-73
2022/11/14 08:37:31;;;;;;;39.88;18.67;;;;;;;;;;5116317;28;20045;-73
2022/11/14 08:40:17;;;;;;;37.85;19.15;;;;;;;;;;5115572;28;20046;-73
2022/11/14 08:43:04;;;;;;;35.30;17.40;;;;;;;;;;5115602;28;20507;-73
2022/11/14 08:45:50;;;;;;;35.72;16.70;;;;;;;;;;5115316;28;20054;-73
2022/11/14 08:48:36;;;;;;;35.20;18.38;;;;;;;;;;5115428;28;20465;-73
2022/11/14 08:51:22;;;;;;;36.40;18.55;;;;;;;;;;5115570;28;20117;-73
2022/11/14 08:54:08;;;;;;;81.30;21.50;;;;;;;;;;5115340;28;20581;-73
2022/11/14 08:56:54;;;;;;;33.83;18.58;;;;;;;;;;5115613;28;20132;-73
2022/11/14 08:59:43;;;;;;;35.28;19.67;;;;;;;;;;5115304;28;20598;-73
2022/11/14 09:02:29;;;;;;;40.45;20.67;;;;;;;;;;5115405;28;20130;-74
2022/11/14 09:05:15;;;;;;;33.13;19.60;;;;;;;;;;5115221;28;20058;-73
2022/11/14 09:08:01;;;;;;;38.15;20.42;;;;;;;;;;5115087;28;20055;-73
2022/11/14 09:10:47;;;;;;;38.30;19.98;;;;;;;;;;5113693;28;20516;-73
2022/11/14 09:13:33;;;;;;;37.83;20.67;;;;;;;;;;5114944;28;20055;-73
2022/11/14 09:16:19;;;;;;;37.60;19.40;;;;;;;;;;5115215;28;20050;-72
2022/11/14 09:19:05;;;;;;;47.15;20.58;;;;;;;;;;5114811;28;20124;-73
2022/11/14 09:21:51;;;;;;;37.13;20.42;;;;;;;;;;5115006;28;20050;-73
2022/11/14 09:24:37;;;;;;;40.53;20.80;;;;;;;;;;5114842;28;20051;-73
2022/11/14 09:27:25;;;;;;;42.80;21.90;;;;;;;;;;5114759;28;20058;-72
2022/11/14 09:30:12;;;;;;;37.35;21.35;;;;;;;;;;5114860;28;20050;-73
2022/11/14 09:33:00;;;;;;;42.78;22.45;;;;;;;;;;5114992;28;20153;-73
2022/11/14 09:35:48;;;;;;;45.22;26.08;;;;;;;;;;5114793;28;20047;-73
2022/11/14 09:38:34;;;;;;;34.20;19.90;;;;;;;;;;5114711;28;20047;-73
2022/11/14 09:41:23;;;;;;;30.63;17.55;;;;;;;;;;5114929;28;20059;-73
2022/11/14 09:44:21;;;;;;;34.15;19.98;;;;;;;;;;5114829;28;20054;-73
2022/11/14 09:47:14;;;;;;;32.22;18.90;;;;;;;;;;5114569;28;20527;-72
2022/11/14 09:50:10;;;;;;;34.05;18.92;;;;;;;;;;5114450;28;20054;-72
2022/11/14 09:52:57;;;;;;;34.20;18.85;;;;;;;;;;5114485;28;20053;-73
2022/11/14 09:55:43;;;;;;;34.22;19.02;;;;;;;;;;5114310;28;20039;-72
2022/11/14 09:58:29;;;;;;;;;;;;;;;;;;5114010;28;20193;-73
2022/11/14 10:01:36;;;;;;;36.38;19.33;;;;;;;;;;5114296;28;19965;-73
2022/11/14 10:04:40;;;;;;;30.80;18.98;;;;;;;;;;5114266;28;20050;-72
2022/11/14 10:07:35;;;;;;;28.42;18.33;;;;;;;;;;5113968;28;20055;-72
2022/11/14 10:10:29;;;;;;;28.05;17.88;;;;;;;;;;5114067;28;20130;-72
2022/11/14 10:13:40;;;;;;;31.92;18.80;;;;;;;;;;5113989;28;20650;-71
2022/11/14 10:16:35;;;;;;;27.05;17.70;;;;;;;;;;5113959;28;20134;-72
2022/11/14 10:19:35;;;;;;;31.17;17.30;;;;;;;;;;5113727;28;20062;-72
2022/11/14 10:22:27;;;;;;;26.63;16.80;;;;;;;;;;5112486;28;20050;-74
2022/11/14 10:25:20;;;;;;;31.02;18.40;;;;;;;;;;5113962;28;20061;-74
2022/11/14 10:28:06;;;;;;;28.55;18.63;;;;;;;;;;5113733;28;20522;-74
2022/11/14 10:31:08;;;;;;;31.70;19.70;;;;;;;;;;5113671;28;20128;-73
2022/11/14 10:33:54;;;;;;;31.20;19.38;;;;;;;;;;5113371;28;20511;-73
2022/11/14 10:36:39;;;;;;;31.38;19.23;;;;;;;;;;5113697;28;20162;-73
2022/11/14 10:39:25;;;;;;;32.92;19.90;;;;;;;;;;5113464;28;20058;-73
2022/11/14 10:42:25;;;;;;;33.40;19.13;;;;;;;;;;5113618;28;20051;-73
2022/11/14 10:45:11;;;;;;;30.88;17.33;;;;;;;;;;5113247;28;20053;-73
2022/11/14 10:47:59;;;;;;;35.60;19.02;;;;;;;;;;5113250;28;20450;-73
2022/11/14 10:50:45;;;;;;;35.60;19.33;;;;;;;;;;5113559;28;20096;-74
2022/11/14 10:53:34;;;;;;;27.50;16.42;;;;;;;;;;5113237;28;20128;-73
2022/11/14 10:56:21;;;;;;;30.17;19.40;;;;;;;;;;5113432;28;20047;-73
2022/11/14 10:59:08;;;;;;;26.73;17.02;;;;;;;;;;5113481;28;20094;-73
2022/11/14 11:01:56;;;;;;;30.27;19.13;;;;;;;;;;5113054;28;20050;-73
2022/11/14 11:04:42;;;;;;;27.15;17.70;;;;;;;;;;5113448;28;20229;-73
2022/11/14 11:13:50;;;;;;;35.72;19.80;;;;;;;;;;5113689;28;20396;-73
2022/11/14 11:16:36;;;;;;;35.10;20.85;;;;;;;;;;5112250;28;20051;-73
2022/11/14 11:19:23;;;;;;;33.63;20.80;;;;;;;;;;5112233;28;20405;-69
2022/11/14 11:22:28;;;;;;;40.13;23.95;;;;;;;;;;5112759;28;20562;-72
2022/11/14 11:25:34;;;;;;;41.53;24.63;;;;;;;;;;5112093;28;20051;-73
2022/11/14 11:28:21;;;;;;;41.45;23.25;;;;;;;;;;5092440;28;20245;-73
2022/11/14 11:31:09;;;;;;;39.03;21.42;;;;;;;;;;5097065;28;20050;-73
2022/11/14 11:33:55;;;;;;;43.50;23.85;;;;;;;;;;5105183;28;20063;-71
2022/11/14 11:36:46;;;;;;;39.75;23.55;;;;;;;;;;5105043;28;20062;-72
2022/11/14 11:39:35;;;;;;;42.28;23.75;;;;;;;;;;5106357;28;20043;-73
2022/11/14 11:42:36;;;;;;;41.55;22.95;;;;;;;;;;5117059;28;20054;-72
2022/11/14 11:45:45;;;;;;;41.55;25.67;;;;;;;;;;5116819;28;20516;-72
2022/11/14 11:48:38;;;;;;;44.35;24.23;;;;;;;;;;5116626;28;20092;-72
2022/11/14 11:51:25;;;;;;;47.08;24.45;;;;;;;;;;5117334;28;20510;-72
2022/11/14 11:54:19;;;;;;;47.00;26.55;;;;;;;;;;5116408;28;20188;-72
2022/11/14 11:57:10;;;;;;;47.30;26.50;;;;;;;;;;5116634;28;20678;-72
2022/11/14 12:00:01;;;;;;;51.45;27.77;;;;;;;;;;5116579;28;20058;-72
2022/11/14 12:02:48;;;;;;;53.45;28.05;;;;;;;;;;5116400;28;20096;-72
2022/11/14 12:05:54;;;;;;;52.17;28.90;;;;;;;;;;5116376;28;20125;-72
2022/11/14 12:08:39;;;;;;;48.88;26.05;;;;;;;;;;5116602;28;20177;-72
2022/11/14 12:11:26;;;;;;;59.47;34.80;;;;;;;;;;5116517;28;20408;-72
2022/11/14 12:14:21;;;;;;;93.78;51.88;;;;;;;;;;5116291;28;20054;-72
2022/11/14 12:17:07;;;;;;;70.18;37.90;;;;;;;;;;5116283;28;20054;-72
2022/11/14 12:20:04;;;;;;;66.32;38.95;;;;;;;;;;5116412;28;20059;-72
2022/11/14 12:23:05;;;;;;;80.75;47.65;;;;;;;;;;5116410;28;20066;-72
2022/11/14 12:26:20;;;;;;;91.70;53.20;;;;;;;;;;5116186;28;20050;-72
2022/11/14 12:29:24;;;;;;;55.58;30.30;;;;;;;;;;5115750;28;20054;-72
2022/11/14 12:32:13;;;;;;;54.53;32.13;;;;;;;;;;5115862;28;20557;-72
2022/11/14 12:35:00;;;;;;;50.80;27.55;;;;;;;;;;5116022;28;20039;-72
2022/11/14 12:37:47;;;;;;;55.88;30.15;;;;;;;;;;5115654;28;20066;-72
2022/11/14 12:40:41;;;;;;;55.03;29.23;;;;;;;;;;5115651;28;20051;-72
2022/11/14 12:43:34;;;;;;;61.15;33.53;;;;;;;;;;5115870;28;20050;-72
2022/11/14 12:46:22;;;;;;;64.50;40.70;;;;;;;;;;5115652;28;20516;-72
2022/11/14 12:49:37;;;;;;;79.72;49.97;;;;;;;;;;5115790;28;20054;-72
2022/11/14 12:52:35;;;;;;;56.88;31.65;;;;;;;;;;5115433;28;20038;-73
2022/11/14 12:55:24;;;;;;;54.72;29.73;;;;;;;;;;5115427;28;20181;-72
2022/11/14 12:58:29;;;;;;;58.70;34.83;;;;;;;;;;5115238;28;20046;-72
2022/11/14 13:01:21;;;;;;;56.10;29.73;;;;;;;;;;5115455;28;20063;-72
2022/11/14 13:04:10;;;;;;;57.88;29.30;;;;;;;;;;5115167;28;20577;-72
2022/11/14 13:07:15;;;;;;;53.40;27.98;;;;;;;;;;5115245;28;20400;-72
2022/11/14 13:10:13;;;;;;;52.05;29.27;;;;;;;;;;5115379;28;20515;-73
2022/11/14 13:22:52;;;;;;;53.08;28.90;;;;;;;;;;5114884;28;20046;-72
2022/11/14 13:25:39;;;;;;;56.95;30.80;;;;;;;;;;5114903;28;20523;-72
2022/11/14 13:28:37;;;;;;;53.28;27.85;;;;;;;;;;5114869;28;20198;-72
2022/11/14 13:31:35;;;;;;;51.50;26.90;;;;;;;;;;5115113;28;20097;-72
2022/11/14 13:34:40;;;;;;;52.88;29.30;;;;;;;;;;5115040;28;20508;-72
2022/11/14 13:37:46;;;;;;;56.28;29.50;;;;;;;;;;5114582;28;20050;-72
2022/11/14 13:40:50;;;;;;;70.07;36.88;;;;;;;;;;5084203;28;20055;-72
2022/11/14 13:43:57;;;;;;;136.98;99.32;;;;;;;;;;5114555;28;20066;-72
2022/11/14 13:46:52;;;;;;;93.68;59.35;;;;;;;;;;5114436;28;20211;-72
2022/11/14 13:49:41;;;;;;;115.13;71.17;;;;;;;;;;5114411;28;20046;-73
2022/11/14 13:52:28;;;;;;;90.18;52.05;;;;;;;;;;5114708;28;20267;-73
2022/11/14 13:55:19;;;;;;;56.45;30.60;;;;;;;;;;5114689;28;20520;-74
2022/11/14 13:58:25;;;;;;;51.28;27.55;;;;;;;;;;5114505;28;20077;-73
2022/11/14 14:01:19;;;;;;;74.63;48.00;;;;;;;;;;5114700;28;20058;-74
2022/11/14 14:04:24;;;;;;;61.00;34.63;;;;;;;;;;5114195;28;20062;-74
2022/11/14 14:07:19;;;;;;;60.00;35.03;;;;;;;;;;5113104;28;20132;-74
2022/11/14 14:10:18;;;;;;;53.22;27.95;;;;;;;;;;5113366;28;20507;-73
2022/11/14 14:13:16;;;;;;;48.05;28.35;;;;;;;;;;5114438;28;20054;-73
2022/11/14 14:16:24;;;;;;;53.30;29.05;;;;;;;;;;5114095;28;20051;-76
2022/11/14 14:19:13;;;;;;;55.20;29.98;;;;;;;;;;5113885;28;20177;-73
2022/11/14 14:21:59;;;;;;;55.50;28.65;;;;;;;;;;5114513;28;20062;-72
2022/11/14 14:24:58;;;;;;;58.55;29.52;;;;;;;;;;5113401;28;20558;-73
2022/11/14 14:28:02;;;;;;;55.28;32.25;;;;;;;;;;5113698;28;20066;-73
2022/11/14 14:31:07;;;;;;;61.47;32.28;;;;;;;;;;5112895;28;20400;-73
2022/11/14 14:33:53;;;;;;;50.53;27.70;;;;;;;;;;5113547;28;20053;-73
2022/11/14 14:36:48;;;;;;;55.05;30.05;;;;;;;;;;5113496;28;20094;-73
2022/11/14 14:39:34;;;;;;;50.63;26.90;;;;;;;;;;5109872;28;20055;-73
2022/11/14 14:42:21;;;;;;;48.25;25.58;;;;;;;;;;5093379;28;20051;-73
2022/11/14 14:45:17;;;;;;;49.55;25.92;;;;;;;;;;5103714;28;20451;-73
2022/11/14 14:48:12;;;;;;;50.65;28.52;;;;;;;;;;5105321;28;20544;-73
2022/11/14 14:50:59;;;;;;;51.05;26.83;;;;;;;;;;5113430;28;20059;-73
2022/11/14 14:53:52;;;;;;;53.13;28.92;;;;;;;;;;5112740;28;20046;-73
2022/11/14 14:56:38;;;;;;;55.47;29.52;;;;;;;;;;5109101;28;20429;-71
2022/11/14 14:59:25;;;;;;;58.03;33.05;;;;;;;;;;5107448;28;20127;-73
2022/11/14 15:02:16;;;;;;;53.83;28.75;;;;;;;;;;5113240;28;20121;-73
2022/11/14 15:05:03;;;;;;;58.42;29.55;;;;;;;;;;5113063;28;20066;-73
2022/11/14 15:07:50;;;;;;;52.75;27.23;;;;;;;;;;5103723;28;20124;-73
2022/11/14 15:10:36;;;;;;;56.38;29.10;;;;;;;;;;5098307;28;20096;-74
2022/11/14 15:13:23;;;;;;;55.90;28.45;;;;;;;;;;5092767;28;20098;-75
2022/11/14 15:16:10;;;;;;;51.65;28.38;;;;;;;;;;5092588;28;20117;-75
2022/11/14 15:18:57;;;;;;;54.65;28.25;;;;;;;;;;5092546;28;20088;-75
2022/11/14 15:21:43;;;;;;;56.35;31.75;;;;;;;;;;5092635;28;20081;-78
2022/11/14 15:24:30;;;;;;;76.55;38.42;;;;;;;;;;5092821;28;20089;-78
2022/11/14 15:27:17;;;;;;;89.88;44.58;;;;;;;;;;5092752;28;20059;-78
2022/11/14 15:30:05;;;;;;;68.03;36.38;;;;;;;;;;5092585;28;20051;-77
2022/11/14 15:32:53;;;;;;;59.78;34.47;;;;;;;;;;5091588;28;20055;-78
2022/11/14 15:35:39;;;;;;;67.72;37.00;;;;;;;;;;5092752;28;20117;-77
2022/11/14 15:38:25;;;;;;;66.15;36.20;;;;;;;;;;5092689;28;20555;-78
2022/11/14 15:41:32;;;;;;;62.38;31.70;;;;;;;;;;5092453;28;20109;-77
2022/11/14 15:44:31;;;;;;;55.97;30.98;;;;;;;;;;5092510;28;20051;-76
2022/11/14 15:47:19;;;;;;;50.72;27.30;;;;;;;;;;5092639;28;20059;-77
2022/11/14 15:50:20;;;;;;;46.50;25.77;;;;;;;;;;5092103;28;20051;-77
2022/11/14 15:53:16;;;;;;;52.20;29.08;;;;;;;;;;5092349;28;20516;-77
2022/11/14 15:56:02;;;;;;;47.17;25.83;;;;;;;;;;5092320;28;20050;-76
2022/11/14 15:58:47;;;;;;;54.72;28.67;;;;;;;;;;5092197;28;20051;-76
2022/11/14 16:01:34;;;;;;;60.63;32.15;;;;;;;;;;5092441;28;20185;-79
2022/11/14 16:04:21;;;;;;;67.10;37.67;;;;;;;;;;5093404;28;20114;-80
2022/11/14 16:07:10;;;;;;;69.55;39.22;;;;;;;;;;5095525;28;20059;-80
2022/11/14 16:09:56;;;;;;;56.53;31.65;;;;;;;;;;5092097;28;20147;-76
2022/11/14 16:12:42;;;;;;;62.10;35.90;;;;;;;;;;5092002;28;20067;-72
2022/11/14 16:15:35;;;;;;;49.33;29.55;;;;;;;;;;5091809;28;20507;-73
2022/11/14 16:18:21;;;;;;;46.08;27.73;;;;;;;;;;5091942;28;20505;-72
2022/11/14 16:21:10;;;;;;;51.90;30.17;;;;;;;;;;5097230;28;20117;-77
2022/11/14 16:23:56;;;;;;;55.15;31.92;;;;;;;;;;5095611;28;20422;-78
2022/11/14 16:26:43;;;;;;;51.45;28.33;;;;;;;;;;5097803;28;20516;-79
2022/11/14 16:29:29;;;;;;;55.35;31.77;;;;;;;;;;5095518;28;20512;-75
2022/11/14 16:32:15;;;;;;;53.90;33.28;;;;;;;;;;5095775;28;20047;-75
2022/11/14 16:35:01;;;;;;;51.28;25.77;;;;;;;;;;5095590;28;20132;-75
2022/11/14 16:37:47;;;;;;;47.08;26.38;;;;;;;;;;5095283;28;20136;-79